createdAt,value
2018-01-06T00:00:11.542Z,80.41
2018-01-06T00:01:11.516Z,79.65
2018-01-06T00:02:11.542Z,79.94
2018-01-06T00:03:11.461Z,80.03
2018-01-06T00:04:11.453Z,80.32
2018-01-06T00:05:11.412Z,79.94
2018-01-06T00:06:11.466Z,79.27
2018-01-06T00:07:11.359Z,78.99
2018-01-06T00:08:11.374Z,78.99
2018-01-06T00:09:11.304Z,79.55
2018-01-06T00:10:11.389Z,80.22
2018-01-06T00:11:11.255Z,80.03
2018-01-06T00:12:11.295Z,80.13
2018-01-06T00:13:11.303Z,80.69
2018-01-06T00:14:11.179Z,80.60
2018-01-06T00:15:11.214Z,81.17
2018-01-06T00:16:11.127Z,78.89
2018-01-06T00:17:11.125Z,80.60
2018-01-06T00:18:11.074Z,80.22
2018-01-06T00:19:11.042Z,80.60
2018-01-06T00:20:11.039Z,79.74
2018-01-06T00:21:10.993Z,78.99
2018-01-06T00:22:11.048Z,78.80
2018-01-06T00:23:10.937Z,78.42
2018-01-06T00:24:10.967Z,79.94
2018-01-06T00:25:10.892Z,78.32
2018-01-06T00:26:10.972Z,79.74
2018-01-06T00:27:10.835Z,79.65
2018-01-06T00:28:10.884Z,78.42
2018-01-06T00:29:10.888Z,78.99
2018-01-06T00:30:10.760Z,78.80
2018-01-06T00:31:10.802Z,78.32
2018-01-06T00:32:10.725Z,79.65
2018-01-06T00:33:10.714Z,78.61
2018-01-06T00:34:10.660Z,77.94
2018-01-06T00:35:10.623Z,78.03
2018-01-06T00:36:10.607Z,77.94
2018-01-06T00:37:10.631Z,79.17
2018-01-06T00:38:10.546Z,78.42
2018-01-06T00:39:10.541Z,78.42
2018-01-06T00:40:10.499Z,78.61
2018-01-06T00:41:10.470Z,78.61
2018-01-06T00:42:10.456Z,78.23
2018-01-06T00:43:10.418Z,78.03
2018-01-06T00:44:10.468Z,78.42
2018-01-06T00:45:10.476Z,77.84
2018-01-06T00:46:10.337Z,77.94
2018-01-06T00:47:10.386Z,77.94
2018-01-06T00:48:10.292Z,77.75
2018-01-06T00:49:10.294Z,76.80
2018-01-06T00:50:10.295Z,77.94
2018-01-06T00:51:10.206Z,77.75
2018-01-06T00:52:10.212Z,77.14
2018-01-06T00:53:10.151Z,77.66
2018-01-06T00:54:10.225Z,77.66
2018-01-06T00:55:10.101Z,77.09
2018-01-06T00:56:10.134Z,77.71
2018-01-06T00:57:10.048Z,78.00
2018-01-06T00:58:10.046Z,77.66
2018-01-06T00:59:09.999Z,77.37
2018-01-06T01:00:09.973Z,77.84
2018-01-06T01:01:09.946Z,77.14
2018-01-06T01:02:09.966Z,78.56
2018-01-06T01:03:09.892Z,78.42
2018-01-06T01:04:09.977Z,78.09
2018-01-06T01:05:09.837Z,77.94
2018-01-06T01:06:09.888Z,78.13
2018-01-06T01:07:09.791Z,78.03
2018-01-06T01:08:09.797Z,78.03
2018-01-06T01:09:09.739Z,77.81
2018-01-06T01:10:09.708Z,77.90
2018-01-06T01:11:09.687Z,77.71
2018-01-06T01:12:09.724Z,77.84
2018-01-06T01:13:09.636Z,79.33
2018-01-06T01:14:09.628Z,79.14
2018-01-06T01:15:09.612Z,77.62
2018-01-06T01:16:09.564Z,78.00
2018-01-06T01:17:09.546Z,78.61
2018-01-06T01:18:09.505Z,78.89
2018-01-06T01:19:09.560Z,78.85
2018-01-06T01:20:09.452Z,78.32
2018-01-06T01:21:09.418Z,77.94
2018-01-06T01:22:09.475Z,77.37
2018-01-06T01:23:09.371Z,78.42
2018-01-06T01:24:09.380Z,78.19
2018-01-06T01:25:09.316Z,77.75
2018-01-06T01:26:09.294Z,78.80
2018-01-06T01:27:09.269Z,77.71
2018-01-06T01:28:09.304Z,77.52
2018-01-06T01:29:09.214Z,77.14
2018-01-06T01:30:09.216Z,78.75
2018-01-06T01:31:09.164Z,76.76
2018-01-06T01:32:09.226Z,77.81
2018-01-06T01:33:09.107Z,77.90
2018-01-06T01:34:09.142Z,77.24
2018-01-06T01:35:09.059Z,76.86
2018-01-06T01:36:09.049Z,77.43
2018-01-06T01:37:09.012Z,78.75
2018-01-06T01:38:09.059Z,77.81
2018-01-06T01:39:08.947Z,77.90
2018-01-06T01:40:08.969Z,77.24
2018-01-06T01:41:08.898Z,78.19
2018-01-06T01:42:08.990Z,77.62
2018-01-06T01:43:08.844Z,77.81
2018-01-06T01:44:08.891Z,77.71
2018-01-06T01:45:08.792Z,77.43
2018-01-06T01:46:08.810Z,78.47
2018-01-06T01:47:08.742Z,78.09
2018-01-06T01:48:08.815Z,78.19
2018-01-06T01:49:08.700Z,77.81
2018-01-06T01:50:08.725Z,77.81
2018-01-06T01:51:08.661Z,77.14
2018-01-06T01:52:08.636Z,77.05
2018-01-06T01:53:08.580Z,78.38
2018-01-06T01:54:08.646Z,78.28
2018-01-06T01:55:08.542Z,77.81
2018-01-06T01:56:08.556Z,77.24
2018-01-06T01:57:08.483Z,77.90
2018-01-06T01:58:08.566Z,77.33
2018-01-06T01:59:08.430Z,77.24
2018-01-06T02:00:08.400Z,77.14
2018-01-06T02:01:08.503Z,78.38
2018-01-06T02:02:08.349Z,77.90
2018-01-06T02:03:09.419Z,76.57
2018-01-06T02:04:08.294Z,78.19
2018-01-06T02:05:08.303Z,77.43
2018-01-06T02:06:08.243Z,76.57
2018-01-06T02:07:08.316Z,77.71
2018-01-06T02:08:08.191Z,77.14
2018-01-06T02:09:08.226Z,77.90
2018-01-06T02:10:08.144Z,76.95
2018-01-06T02:11:08.146Z,78.75
2018-01-06T02:12:08.089Z,77.71
2018-01-06T02:13:08.152Z,78.09
2018-01-06T02:14:08.034Z,78.66
2018-01-06T02:15:08.059Z,77.90
2018-01-06T02:16:08.064Z,79.61
2018-01-06T02:17:07.962Z,77.81
2018-01-06T02:18:07.974Z,79.33
2018-01-06T02:19:07.910Z,78.89
2018-01-06T02:20:07.988Z,78.47
2018-01-06T02:21:07.853Z,79.71
2018-01-06T02:22:07.824Z,78.19
2018-01-06T02:23:07.901Z,78.47
2018-01-06T02:24:07.777Z,78.56
2018-01-06T02:25:07.812Z,77.62
2018-01-06T02:26:07.723Z,79.90
2018-01-06T02:27:07.694Z,79.71
2018-01-06T02:28:07.668Z,78.95
2018-01-06T02:29:07.732Z,77.90
2018-01-06T02:30:07.621Z,78.00
2018-01-06T02:31:07.645Z,78.28
2018-01-06T02:32:07.561Z,78.56
2018-01-06T02:33:07.554Z,79.71
2018-01-06T02:34:07.516Z,78.38
2018-01-06T02:35:07.486Z,78.00
2018-01-06T02:36:07.454Z,78.28
2018-01-06T02:37:07.477Z,78.28
2018-01-06T02:38:07.411Z,77.81
2018-01-06T02:39:07.488Z,79.61
2018-01-06T02:40:07.352Z,79.14
2018-01-06T02:41:07.329Z,77.81
2018-01-06T02:42:07.405Z,78.66
2018-01-06T02:43:07.316Z,77.71
2018-01-06T02:44:07.322Z,78.56
2018-01-06T02:45:07.224Z,78.56
2018-01-06T02:46:07.225Z,77.90
2018-01-06T02:47:07.230Z,79.52
2018-01-06T02:48:07.145Z,79.61
2018-01-06T02:49:07.141Z,79.52
2018-01-06T02:50:07.098Z,78.28
2018-01-06T02:51:07.156Z,78.85
2018-01-06T02:52:07.048Z,77.90
2018-01-06T02:53:07.065Z,78.85
2018-01-06T02:54:06.985Z,78.00
2018-01-06T02:55:07.078Z,78.56
2018-01-06T02:56:06.931Z,77.71
2018-01-06T02:57:06.985Z,78.09
2018-01-06T02:58:06.886Z,77.81
2018-01-06T02:59:06.894Z,78.85
2018-01-06T03:00:06.833Z,79.71
2018-01-06T03:01:06.907Z,79.23
2018-01-06T03:02:06.776Z,78.75
2018-01-06T03:03:06.817Z,78.38
2018-01-06T03:04:06.726Z,80.37
2018-01-06T03:05:06.729Z,78.85
2018-01-06T03:06:06.669Z,78.56
2018-01-06T03:07:06.738Z,78.66
2018-01-06T03:08:06.618Z,80.18
2018-01-06T03:09:06.649Z,79.33
2018-01-06T03:10:06.618Z,79.71
2018-01-06T03:11:06.555Z,78.09
2018-01-06T03:12:06.516Z,78.47
2018-01-06T03:13:06.572Z,78.66
2018-01-06T03:14:06.463Z,77.90
2018-01-06T03:15:06.478Z,78.66
2018-01-06T03:16:06.410Z,77.90
2018-01-06T03:17:06.495Z,77.71
2018-01-06T03:18:06.352Z,78.47
2018-01-06T03:19:06.401Z,78.38
2018-01-06T03:20:06.305Z,78.19
2018-01-06T03:21:06.277Z,78.75
2018-01-06T03:22:06.249Z,78.19
2018-01-06T03:23:06.327Z,78.66
2018-01-06T03:24:06.203Z,78.85
2018-01-06T03:25:06.238Z,78.66
2018-01-06T03:26:06.148Z,78.75
2018-01-06T03:27:06.125Z,80.18
2018-01-06T03:28:06.150Z,79.71
2018-01-06T03:29:06.067Z,78.85
2018-01-06T03:30:06.072Z,78.85
2018-01-06T03:31:06.020Z,80.08
2018-01-06T03:32:06.073Z,79.52
2018-01-06T03:33:05.961Z,79.90
2018-01-06T03:34:05.998Z,79.90
2018-01-06T03:35:05.989Z,80.75
2018-01-06T03:36:05.882Z,80.56
2018-01-06T03:37:05.898Z,79.33
2018-01-06T03:38:05.833Z,78.75
2018-01-06T03:39:05.912Z,80.75
2018-01-06T03:40:05.779Z,79.90
2018-01-06T03:41:05.755Z,80.65
2018-01-06T03:42:05.826Z,80.37
2018-01-06T03:43:05.701Z,80.94
2018-01-06T03:44:05.734Z,80.94
2018-01-06T03:45:05.648Z,80.37
2018-01-06T03:46:05.616Z,80.56
2018-01-06T03:47:05.659Z,80.65
2018-01-06T03:48:05.564Z,80.37
2018-01-06T03:49:05.563Z,80.27
2018-01-06T03:50:05.527Z,79.99
2018-01-06T03:51:05.491Z,80.18
2018-01-06T03:52:05.460Z,79.71
2018-01-06T03:53:05.484Z,79.61
2018-01-06T03:54:05.407Z,79.99
2018-01-06T03:55:05.497Z,81.70
2018-01-06T03:56:05.358Z,81.23
2018-01-06T03:57:05.332Z,80.37
2018-01-06T03:58:05.310Z,81.79
2018-01-06T03:59:05.317Z,81.51
2018-01-06T04:00:05.257Z,81.04
2018-01-06T04:01:05.326Z,81.70
2018-01-06T04:02:05.202Z,80.65
2018-01-06T04:03:05.172Z,81.32
2018-01-06T04:04:05.244Z,81.13
2018-01-06T04:05:05.125Z,80.75
2018-01-06T04:06:05.154Z,81.98
2018-01-06T04:07:05.067Z,80.37
2018-01-06T04:08:05.069Z,80.18
2018-01-06T04:09:05.081Z,80.65
2018-01-06T04:10:04.995Z,80.18
2018-01-06T04:11:04.982Z,80.94
2018-01-06T04:12:04.941Z,80.18
2018-01-06T04:13:06.016Z,80.56
2018-01-06T04:14:04.887Z,80.84
2018-01-06T04:15:04.868Z,81.13
2018-01-06T04:16:04.912Z,80.56
2018-01-06T04:17:04.813Z,81.04
2018-01-06T04:18:04.821Z,80.56
2018-01-06T04:19:04.759Z,80.65
2018-01-06T04:20:04.723Z,81.23
2018-01-06T04:21:04.703Z,80.08
2018-01-06T04:22:04.740Z,81.04
2018-01-06T04:23:04.648Z,81.23
2018-01-06T04:24:04.649Z,81.23
2018-01-06T04:25:04.596Z,81.04
2018-01-06T04:26:04.568Z,80.56
2018-01-06T04:27:04.566Z,81.70
2018-01-06T04:28:04.518Z,80.75
2018-01-06T04:29:04.581Z,81.04
2018-01-06T04:30:04.464Z,80.46
2018-01-06T04:31:04.488Z,81.70
2018-01-06T04:32:04.413Z,80.37
2018-01-06T04:33:04.501Z,81.88
2018-01-06T04:34:04.364Z,80.56
2018-01-06T04:35:04.414Z,80.27
2018-01-06T04:36:04.302Z,80.84
2018-01-06T04:37:04.319Z,80.75
2018-01-06T04:38:04.255Z,81.51
2018-01-06T04:39:04.333Z,81.04
2018-01-06T04:40:04.201Z,81.13
2018-01-06T04:41:04.242Z,81.70
2018-01-06T04:42:04.152Z,80.84
2018-01-06T04:43:04.165Z,81.23
2018-01-06T04:44:04.095Z,80.75
2018-01-06T04:45:04.164Z,80.56
2018-01-06T04:46:04.053Z,80.46
2018-01-06T04:47:04.076Z,80.94
2018-01-06T04:48:03.996Z,80.75
2018-01-06T04:49:03.984Z,81.51
2018-01-06T04:50:03.940Z,79.90
2018-01-06T04:51:03.994Z,80.46
2018-01-06T04:52:03.887Z,80.84
2018-01-06T04:53:03.906Z,80.94
2018-01-06T04:54:03.831Z,80.46
2018-01-06T04:55:03.811Z,81.23
2018-01-06T04:56:03.780Z,80.56
2018-01-06T04:57:03.827Z,81.98
2018-01-06T04:58:03.726Z,81.04
2018-01-06T04:59:03.738Z,80.18
2018-01-06T05:00:03.673Z,81.13
2018-01-06T05:01:03.748Z,80.37
2018-01-06T05:02:03.626Z,80.65
2018-01-06T05:03:04.684Z,80.84
2018-01-06T05:04:03.567Z,80.75
2018-01-06T05:05:03.545Z,81.41
2018-01-06T05:06:03.521Z,80.56
2018-01-06T05:07:03.582Z,79.90
2018-01-06T05:08:03.465Z,80.65
2018-01-06T05:09:03.492Z,79.99
2018-01-06T05:10:03.423Z,80.65
2018-01-06T05:11:03.383Z,80.56
2018-01-06T05:12:03.417Z,80.37
2018-01-06T05:13:03.333Z,80.84
2018-01-06T05:14:03.425Z,81.32
2018-01-06T05:15:03.281Z,80.08
2018-01-06T05:16:03.334Z,81.32
2018-01-06T05:17:03.233Z,81.70
2018-01-06T05:18:03.240Z,80.08
2018-01-06T05:19:03.179Z,81.13
2018-01-06T05:20:03.256Z,81.51
2018-01-06T05:21:03.125Z,80.37
2018-01-06T05:22:03.161Z,81.04
2018-01-06T05:23:03.074Z,80.84
2018-01-06T05:24:03.072Z,80.84
2018-01-06T05:25:03.025Z,80.84
2018-01-06T05:26:02.996Z,79.99
2018-01-06T05:27:02.961Z,80.37
2018-01-06T05:28:02.993Z,80.75
2018-01-06T05:29:02.913Z,80.08
2018-01-06T05:30:02.904Z,80.18
2018-01-06T05:31:02.863Z,81.32
2018-01-06T05:32:02.836Z,79.99
2018-01-06T05:33:02.922Z,80.56
2018-01-06T05:34:02.780Z,80.65
2018-01-06T05:35:02.837Z,80.65
2018-01-06T05:36:02.729Z,80.56
2018-01-06T05:37:02.755Z,81.13
2018-01-06T05:38:02.679Z,80.84
2018-01-06T05:39:02.754Z,80.56
2018-01-06T05:40:02.625Z,81.13
2018-01-06T05:41:02.668Z,81.23
2018-01-06T05:42:02.577Z,80.18
2018-01-06T05:43:02.572Z,80.94
2018-01-06T05:44:02.515Z,81.88
2018-01-06T05:45:02.586Z,81.79
2018-01-06T05:46:02.464Z,80.84
2018-01-06T05:47:02.496Z,80.84
2018-01-06T05:48:02.410Z,81.04
2018-01-06T05:49:02.393Z,80.75
2018-01-06T05:50:02.409Z,80.56
2018-01-06T05:51:02.337Z,81.13
2018-01-06T05:52:02.320Z,81.98
2018-01-06T05:53:02.283Z,81.70
2018-01-06T05:54:02.334Z,81.23
2018-01-06T05:55:02.252Z,81.79
2018-01-06T05:56:02.244Z,81.41
2018-01-06T05:57:02.178Z,82.17
2018-01-06T05:58:02.257Z,81.88
2018-01-06T05:59:02.124Z,81.88
2018-01-06T06:00:02.103Z,81.88
2018-01-06T06:01:02.077Z,81.60
2018-01-06T06:02:02.072Z,81.98
2018-01-06T06:03:02.018Z,82.74
2018-01-06T06:04:02.089Z,81.98
2018-01-06T06:05:01.970Z,81.70
2018-01-06T06:06:02.003Z,82.65
2018-01-06T06:07:01.915Z,81.88
2018-01-06T06:08:01.910Z,81.60
2018-01-06T06:09:01.864Z,82.27
2018-01-06T06:10:01.840Z,81.88
2018-01-06T06:11:01.811Z,82.65
2018-01-06T06:12:01.832Z,81.70
2018-01-06T06:13:01.753Z,81.13
2018-01-06T06:14:01.842Z,81.32
2018-01-06T06:15:01.707Z,81.51
2018-01-06T06:16:01.679Z,81.41
2018-01-06T06:17:01.758Z,81.51
2018-01-06T06:18:01.630Z,82.27
2018-01-06T06:19:01.667Z,82.46
2018-01-06T06:20:01.573Z,80.84
2018-01-06T06:21:01.583Z,81.23
2018-01-06T06:22:01.523Z,81.13
2018-01-06T06:23:01.588Z,80.46
2018-01-06T06:24:01.468Z,80.94
2018-01-06T06:25:01.501Z,81.60
2018-01-06T06:26:01.520Z,81.98
2018-01-06T06:27:01.388Z,81.41
2018-01-06T06:28:01.416Z,81.13
2018-01-06T06:29:01.338Z,82.36
2018-01-06T06:30:01.428Z,82.27
2018-01-06T06:31:01.283Z,82.17
2018-01-06T06:32:01.262Z,82.65
2018-01-06T06:33:01.344Z,82.17
2018-01-06T06:34:01.209Z,81.60
2018-01-06T06:35:01.253Z,82.84
2018-01-06T06:36:01.158Z,81.23
2018-01-06T06:37:01.163Z,81.60
2018-01-06T06:38:01.103Z,81.88
2018-01-06T06:39:01.176Z,81.98
2018-01-06T06:40:01.058Z,80.94
2018-01-06T06:41:01.086Z,81.79
2018-01-06T06:42:01.005Z,81.13
2018-01-06T06:43:00.979Z,80.94
2018-01-06T06:44:00.951Z,81.60
2018-01-06T06:45:00.925Z,81.70
2018-01-06T06:46:00.894Z,81.32
2018-01-06T06:47:00.873Z,81.32
2018-01-06T06:48:00.841Z,81.60
2018-01-06T06:49:00.828Z,81.79
2018-01-06T06:50:00.795Z,81.79
2018-01-06T06:51:00.774Z,81.13
2018-01-06T06:52:00.743Z,82.55
2018-01-06T06:53:00.752Z,81.51
2018-01-06T06:54:00.739Z,81.88
2018-01-06T06:55:00.666Z,81.70
2018-01-06T06:56:00.634Z,82.17
2018-01-06T06:57:00.610Z,81.32
2018-01-06T06:58:00.587Z,82.08
2018-01-06T06:59:00.555Z,82.08
2018-01-06T07:00:00.588Z,81.70
2018-01-06T07:01:01.306Z,80.65
2018-01-06T07:02:00.476Z,80.84
2018-01-06T07:03:00.459Z,80.75
2018-01-06T07:04:00.446Z,81.04
2018-01-06T07:05:00.405Z,81.13
2018-01-06T07:06:00.375Z,80.94
2018-01-06T07:07:00.346Z,80.75
2018-01-06T07:08:00.331Z,81.70
2018-01-06T07:09:00.296Z,80.75
2018-01-06T07:10:00.287Z,81.04
2018-01-06T07:11:00.244Z,81.60
2018-01-06T07:12:00.225Z,82.55
2018-01-06T07:13:00.197Z,81.79
2018-01-06T07:14:00.162Z,82.36
2018-01-06T07:15:00.169Z,81.88
2018-01-06T07:16:00.120Z,81.32
2018-01-06T07:17:00.087Z,81.98
2018-01-06T07:18:00.084Z,81.23
2018-01-06T07:19:00.040Z,81.04
2018-01-06T07:20:00.012Z,81.13
2018-01-06T07:20:59.981Z,81.13
2018-01-06T07:21:59.962Z,81.51
2018-01-06T07:22:59.932Z,82.08
2018-01-06T07:23:59.899Z,80.94
2018-01-06T07:24:59.880Z,81.13
2018-01-06T07:25:59.850Z,81.13
2018-01-06T07:26:59.820Z,80.75
2018-01-06T07:27:59.800Z,81.13
2018-01-06T07:28:59.778Z,81.79
2018-01-06T07:29:59.748Z,81.60
2018-01-06T07:30:59.716Z,81.60
2018-01-06T07:31:59.696Z,81.70
2018-01-06T07:32:59.669Z,81.51
2018-01-06T07:33:59.642Z,81.60
2018-01-06T07:34:59.618Z,80.65
2018-01-06T07:35:59.588Z,81.60
2018-01-06T07:36:59.568Z,81.88
2018-01-06T07:37:59.533Z,81.13
2018-01-06T07:38:59.512Z,81.98
2018-01-06T07:40:00.303Z,82.36
2018-01-06T07:40:59.451Z,81.79
2018-01-06T07:42:00.307Z,81.51
2018-01-06T07:42:59.421Z,81.60
2018-01-06T07:43:59.377Z,81.13
2018-01-06T07:44:59.369Z,81.13
2018-01-06T07:45:59.335Z,80.56
2018-01-06T07:46:59.300Z,81.70
2018-01-06T07:47:59.281Z,81.04
2018-01-06T07:48:59.353Z,80.65
2018-01-06T07:49:59.229Z,81.04
2018-01-06T07:50:59.206Z,80.56
2018-01-06T07:51:59.270Z,80.65
2018-01-06T07:52:59.145Z,80.37
2018-01-06T07:53:59.122Z,80.65
2018-01-06T07:54:59.088Z,81.98
2018-01-06T07:55:59.069Z,81.41
2018-01-06T07:56:59.036Z,81.23
2018-01-06T07:57:59.805Z,80.94
2018-01-06T07:58:58.983Z,80.75
2018-01-06T07:59:58.964Z,81.13
2018-01-06T08:00:58.937Z,80.75
2018-01-06T08:01:58.906Z,81.60
2018-01-06T08:02:58.884Z,81.23
2018-01-06T08:03:58.853Z,81.60
2018-01-06T08:04:58.829Z,82.08
2018-01-06T08:05:58.841Z,81.98
2018-01-06T08:06:58.776Z,81.98
2018-01-06T08:07:58.762Z,82.46
2018-01-06T08:08:58.760Z,81.60
2018-01-06T08:09:58.694Z,81.88
2018-01-06T08:10:58.671Z,81.60
2018-01-06T08:11:59.304Z,81.70
2018-01-06T08:12:58.619Z,81.23
2018-01-06T08:13:59.304Z,81.32
2018-01-06T08:14:58.565Z,81.13
2018-01-06T08:15:58.597Z,81.79
2018-01-06T08:16:58.519Z,82.17
2018-01-06T08:17:59.310Z,81.88
2018-01-06T08:18:58.475Z,81.79
2018-01-06T08:19:58.434Z,81.41
2018-01-06T08:20:58.407Z,82.08
2018-01-06T08:21:58.405Z,81.13
2018-01-06T08:22:58.458Z,81.88
2018-01-06T08:23:58.329Z,81.93
2018-01-06T08:24:58.346Z,81.93
2018-01-06T08:25:58.282Z,83.59
2018-01-06T08:26:58.356Z,83.16
2018-01-06T08:27:58.224Z,82.21
2018-01-06T08:28:58.205Z,82.40
2018-01-06T08:29:58.175Z,81.65
2018-01-06T08:30:58.150Z,81.65
2018-01-06T08:31:58.121Z,82.12
2018-01-06T08:32:58.104Z,82.78
2018-01-06T08:33:58.077Z,82.78
2018-01-06T08:34:58.101Z,82.21
2018-01-06T08:35:58.125Z,82.21
2018-01-06T08:36:57.990Z,82.40
2018-01-06T08:37:58.014Z,82.88
2018-01-06T08:38:57.940Z,83.07
2018-01-06T08:39:57.928Z,83.54
2018-01-06T08:40:57.885Z,82.78
2018-01-06T08:41:57.857Z,83.45
2018-01-06T08:42:57.946Z,82.88
2018-01-06T08:43:57.802Z,82.59
2018-01-06T08:44:57.856Z,82.88
2018-01-06T08:45:57.755Z,83.64
2018-01-06T08:46:57.763Z,83.64
2018-01-06T08:47:57.702Z,83.83
2018-01-06T08:48:57.776Z,83.07
2018-01-06T08:49:57.651Z,83.83
2018-01-06T08:50:57.798Z,83.83
2018-01-06T08:51:57.618Z,83.45
2018-01-06T08:52:57.568Z,82.88
2018-01-06T08:53:57.546Z,83.07
2018-01-06T08:54:57.607Z,82.69
2018-01-06T08:55:57.493Z,82.69
2018-01-06T08:56:57.516Z,83.73
2018-01-06T08:57:57.443Z,83.54
2018-01-06T08:58:57.530Z,83.36
2018-01-06T08:59:57.393Z,83.73
2018-01-06T09:00:57.442Z,83.16
2018-01-06T09:01:57.335Z,83.92
2018-01-06T09:02:57.309Z,84.21
2018-01-06T09:03:57.290Z,84.30
2018-01-06T09:04:57.364Z,83.64
2018-01-06T09:05:57.249Z,84.59
2018-01-06T09:06:57.277Z,83.26
2018-01-06T09:07:57.181Z,81.93
2018-01-06T09:08:57.285Z,81.17
2018-01-06T09:09:57.125Z,80.69
2018-01-06T09:10:57.201Z,80.79
2018-01-06T09:11:57.675Z,80.69
2018-01-06T09:12:57.058Z,81.74
2018-01-06T09:13:57.028Z,82.88
2018-01-06T09:14:57.017Z,82.88
2018-01-06T09:15:56.977Z,83.16
2018-01-06T09:16:57.037Z,84.21
2018-01-06T09:17:56.926Z,84.30
2018-01-06T09:18:56.935Z,83.73
2018-01-06T09:19:56.871Z,82.88
2018-01-06T09:20:56.950Z,83.45
2018-01-06T09:21:56.819Z,84.40
2018-01-06T09:22:56.857Z,82.88
2018-01-06T09:23:56.864Z,83.92
2018-01-06T09:24:56.740Z,84.30
2018-01-06T09:25:56.777Z,84.30
2018-01-06T09:26:56.688Z,82.82
2018-01-06T09:27:56.684Z,83.39
2018-01-06T09:28:56.632Z,84.78
2018-01-06T09:29:56.698Z,83.16
2018-01-06T09:30:56.589Z,83.68
2018-01-06T09:31:56.605Z,84.25
2018-01-06T09:32:56.536Z,83.68
2018-01-06T09:33:56.618Z,83.87
2018-01-06T09:34:56.482Z,83.59
2018-01-06T09:35:56.456Z,82.92
2018-01-06T09:36:56.478Z,83.49
2018-01-06T09:37:56.438Z,85.01
2018-01-06T09:38:56.380Z,85.68
2018-01-06T09:39:56.450Z,85.11
2018-01-06T09:40:56.353Z,85.39
2018-01-06T09:41:56.296Z,85.39
2018-01-06T09:42:56.369Z,85.58
2018-01-06T09:43:56.247Z,85.20
2018-01-06T09:44:56.276Z,85.58
2018-01-06T09:45:56.199Z,84.34
2018-01-06T09:46:56.184Z,86.05
2018-01-06T09:47:56.149Z,86.34
2018-01-06T09:48:56.196Z,85.11
2018-01-06T09:49:56.100Z,85.20
2018-01-06T09:50:56.109Z,84.44
2018-01-06T09:51:56.042Z,85.53
2018-01-06T09:52:56.125Z,86.00
2018-01-06T09:53:55.993Z,85.15
2018-01-06T09:54:56.033Z,85.15
2018-01-06T09:55:55.942Z,85.91
2018-01-06T09:56:55.939Z,84.48
2018-01-06T09:57:55.893Z,85.91
2018-01-06T09:58:55.953Z,86.10
2018-01-06T09:59:55.841Z,85.53
2018-01-06T10:00:55.871Z,85.62
2018-01-06T10:01:55.785Z,84.77
2018-01-06T10:02:55.768Z,85.15
2018-01-06T10:03:55.782Z,86.47
2018-01-06T10:04:55.707Z,85.91
2018-01-06T10:05:56.001Z,85.43
2018-01-06T10:06:55.657Z,86.00
2018-01-06T10:07:55.687Z,86.57
2018-01-06T10:08:55.606Z,86.38
2018-01-06T10:09:55.610Z,85.05
2018-01-06T10:10:55.556Z,86.76
2018-01-06T10:11:55.629Z,86.29
2018-01-06T10:12:55.506Z,86.76
2018-01-06T10:13:55.538Z,86.95
2018-01-06T10:14:55.460Z,87.05
2018-01-06T10:15:55.445Z,85.91
2018-01-06T10:16:55.402Z,85.62
2018-01-06T10:17:55.416Z,87.62
2018-01-06T10:18:55.463Z,87.24
2018-01-06T10:19:55.325Z,86.47
2018-01-06T10:20:55.381Z,86.67
2018-01-06T10:21:55.280Z,87.66
2018-01-06T10:22:55.253Z,87.28
2018-01-06T10:23:55.227Z,87.09
2018-01-06T10:24:55.221Z,87.76
2018-01-06T10:25:55.176Z,87.47
2018-01-06T10:26:55.209Z,87.19
2018-01-06T10:27:55.121Z,86.14
2018-01-06T10:28:55.216Z,87.38
2018-01-06T10:29:55.073Z,87.85
2018-01-06T10:30:55.132Z,88.42
2018-01-06T10:31:55.046Z,87.95
2018-01-06T10:32:55.015Z,88.04
2018-01-06T10:33:54.982Z,86.80
2018-01-06T10:34:55.049Z,87.66
2018-01-06T10:35:54.925Z,87.38
2018-01-06T10:36:54.959Z,87.85
2018-01-06T10:37:54.874Z,87.95
2018-01-06T10:38:54.867Z,87.66
2018-01-06T10:39:54.826Z,88.80
2018-01-06T10:40:54.878Z,88.80
2018-01-06T10:41:54.779Z,88.23
2018-01-06T10:42:54.792Z,88.66
2018-01-06T10:43:54.726Z,88.66
2018-01-06T10:44:54.810Z,88.85
2018-01-06T10:45:54.673Z,89.99
2018-01-06T10:46:54.713Z,89.00
2018-01-06T10:47:54.622Z,89.80
2018-01-06T10:48:54.594Z,89.14
2018-01-06T10:49:54.570Z,88.85
2018-01-06T10:50:54.638Z,88.66
2018-01-06T10:51:54.519Z,88.66
2018-01-06T10:52:54.544Z,87.80
2018-01-06T10:53:54.477Z,88.66
2018-01-06T10:54:54.457Z,88.37
2018-01-06T10:55:54.425Z,90.56
2018-01-06T10:56:54.467Z,89.51
2018-01-06T10:57:54.376Z,91.61
2018-01-06T10:58:54.377Z,90.08
2018-01-06T10:59:54.320Z,90.08
2018-01-06T11:00:54.302Z,90.94
2018-01-06T11:01:54.299Z,89.80
2018-01-06T11:02:54.266Z,90.18
2018-01-06T11:03:54.335Z,90.47
2018-01-06T11:04:54.194Z,91.22
2018-01-06T11:05:54.211Z,90.18
2018-01-06T11:06:54.147Z,90.94
2018-01-06T11:07:54.228Z,89.51
2018-01-06T11:08:54.096Z,89.99
2018-01-06T11:09:54.137Z,89.42
2018-01-06T11:10:54.046Z,88.75
2018-01-06T11:11:54.047Z,90.42
2018-01-06T11:12:54.000Z,90.13
2018-01-06T11:13:54.057Z,89.84
2018-01-06T11:14:53.963Z,89.51
2018-01-06T11:15:53.968Z,89.65
2018-01-06T11:16:53.905Z,91.08
2018-01-06T11:17:53.983Z,91.08
2018-01-06T11:18:53.850Z,91.65
2018-01-06T11:19:53.894Z,91.65
2018-01-06T11:20:53.798Z,92.13
2018-01-06T11:21:53.802Z,91.56
2018-01-06T11:22:53.752Z,91.75
2018-01-06T11:23:53.728Z,90.51
2018-01-06T11:24:53.701Z,90.22
2018-01-06T11:25:53.724Z,91.65
2018-01-06T11:26:53.653Z,91.56
2018-01-06T11:27:53.748Z,90.51
2018-01-06T11:28:53.605Z,90.70
2018-01-06T11:29:53.584Z,89.18
2018-01-06T11:30:53.663Z,90.89
2018-01-06T11:31:53.528Z,91.08
2018-01-06T11:32:53.561Z,91.37
2018-01-06T11:33:53.483Z,91.27
2018-01-06T11:34:53.450Z,90.99
2018-01-06T11:35:53.495Z,92.03
2018-01-06T11:36:53.482Z,91.17
2018-01-06T11:37:53.377Z,91.27
2018-01-06T11:38:53.394Z,91.75
2018-01-06T11:39:53.332Z,92.41
2018-01-06T11:40:53.308Z,91.84
2018-01-06T11:41:53.309Z,91.17
2018-01-06T11:42:53.252Z,91.56
2018-01-06T11:43:53.323Z,91.27
2018-01-06T11:44:53.208Z,92.03
2018-01-06T11:45:53.181Z,91.65
2018-01-06T11:46:53.155Z,91.46
2018-01-06T11:47:53.243Z,91.08
2018-01-06T11:48:53.116Z,91.84
2018-01-06T11:49:53.155Z,91.65
2018-01-06T11:50:53.058Z,91.46
2018-01-06T11:51:53.066Z,90.42
2018-01-06T11:52:53.010Z,90.03
2018-01-06T11:53:52.983Z,91.56
2018-01-06T11:54:52.959Z,89.56
2018-01-06T11:55:52.987Z,91.46
2018-01-06T11:56:52.906Z,90.70
2018-01-06T11:57:53.003Z,90.70
2018-01-06T11:58:52.900Z,90.13
2018-01-06T11:59:52.832Z,91.46
2018-01-06T12:00:52.914Z,90.61
2018-01-06T12:01:52.791Z,89.94
2018-01-06T12:02:52.824Z,90.03
2018-01-06T12:03:52.738Z,89.65
2018-01-06T12:04:52.710Z,90.70
2018-01-06T12:05:52.741Z,90.89
2018-01-06T12:06:52.668Z,91.46
2018-01-06T12:07:52.751Z,91.17
2018-01-06T12:08:52.610Z,91.17
2018-01-06T12:09:52.597Z,90.80
2018-01-06T12:10:52.567Z,91.46
2018-01-06T12:11:52.570Z,90.51
2018-01-06T12:12:52.517Z,90.22
2018-01-06T12:13:52.589Z,90.70
2018-01-06T12:14:52.468Z,90.70
2018-01-06T12:15:52.446Z,90.22
2018-01-06T12:16:52.502Z,90.70
2018-01-06T12:17:52.391Z,91.08
2018-01-06T12:18:52.411Z,91.84
2018-01-06T12:19:52.347Z,90.80
2018-01-06T12:20:52.323Z,92.32
2018-01-06T12:21:52.290Z,91.46
2018-01-06T12:22:52.335Z,91.56
2018-01-06T12:23:52.244Z,90.70
2018-01-06T12:24:52.246Z,90.22
2018-01-06T12:25:52.199Z,91.08
2018-01-06T12:26:52.255Z,91.17
2018-01-06T12:27:52.145Z,90.22
2018-01-06T12:28:52.177Z,91.08
2018-01-06T12:29:52.100Z,90.42
2018-01-06T12:30:52.070Z,90.94
2018-01-06T12:31:52.081Z,90.56
2018-01-06T12:32:52.026Z,91.56
2018-01-06T12:33:52.096Z,90.84
2018-01-06T12:34:51.972Z,91.51
2018-01-06T12:35:51.956Z,90.89
2018-01-06T12:36:51.925Z,91.27
2018-01-06T12:37:52.015Z,90.70
2018-01-06T12:38:51.877Z,90.89
2018-01-06T12:39:51.930Z,91.08
2018-01-06T12:40:51.826Z,91.08
2018-01-06T12:41:51.840Z,90.22
2018-01-06T12:42:51.777Z,90.51
2018-01-06T12:43:51.848Z,90.70
2018-01-06T12:44:51.732Z,89.94
2018-01-06T12:45:51.760Z,89.47
2018-01-06T12:46:51.682Z,90.03
2018-01-06T12:47:51.768Z,91.22
2018-01-06T12:48:51.633Z,91.13
2018-01-06T12:49:51.682Z,91.27
2018-01-06T12:50:51.584Z,90.22
2018-01-06T12:51:51.560Z,90.61